Time;durP1;ratioP1;P1;durP2;ratioP2;P2;SDS_P1;SDS_P2;PMS_P1;PMS_P2;Temp;Humidity;BMP_temperature;BMP_pressure;BME280_temperature;BME280_humidity;BME280_pressure;Samples;Min_cycle;Max_cycle;Signal;HPM_P1;HPM_P2
2023/03/27 00:00:19;;;;;;;;;;;;;;;7.19;80.47;96777.88;4968812;28;19918;-65
2023/03/27 00:02:47;;;;;;;;;;;;;;;7.19;80.85;96783.94;4954561;28;19915;-65
2023/03/27 00:05:13;;;;;;;;;;;;;;;7.16;80.90;96783.31;4953529;28;19962;-65
2023/03/27 00:07:40;;;;;;;;;;;;;;;7.14;80.58;96786.06;4952717;29;19965;-65
2023/03/27 00:10:06;;;;;;;;;;;;;;;7.17;80.68;96788.44;4968607;28;20411;-65
2023/03/27 00:12:32;;;;;;;;;;;;;;;7.18;79.62;96787.47;4952858;29;19926;-64
2023/03/27 00:14:57;;;;;;;;;;;;;;;7.19;79.42;96793.53;4951988;28;20296;-66
2023/03/27 00:17:23;;;;;;;;;;;;;;;7.20;80.03;96790.00;4953747;29;20413;-65
2023/03/27 00:19:49;;;;;;;;;;;;;;;7.16;79.21;96794.63;4953130;29;19926;-65
2023/03/27 00:22:15;;;;;;;;;;;;;;;7.13;80.10;96800.06;4954242;28;19997;-64
2023/03/27 00:24:41;;;;;;;;;;;;;;;7.11;79.15;96794.94;4952955;29;19921;-65
2023/03/27 00:27:07;;;;;;;;;;;;;;;7.02;79.35;96797.44;4954327;29;19914;-65
2023/03/27 00:29:33;;;;;;;;;;;;;;;7.06;79.02;96804.09;4951185;29;20407;-64
2023/03/27 00:31:58;;;;;;;;;;;;;;;7.00;80.58;96799.34;4949676;28;19918;-65
2023/03/27 00:34:24;;;;;;;;;;;;;;;7.02;80.41;96800.88;4954055;29;19914;-64
2023/03/27 00:36:50;;;;;;;;;;;;;;;7.09;79.77;96799.47;4969142;28;19926;-66
2023/03/27 00:39:16;;;;;;;;;;;;;;;7.08;79.54;96808.22;4967951;28;20384;-65
2023/03/27 00:41:41;;;;;;;;;;;;;;;7.04;79.23;96812.00;4950903;28;19919;-64
2023/03/27 00:44:22;;;;;;;;;;;;;;;7.00;79.91;96809.75;4953138;28;20351;-65
2023/03/27 00:46:48;;;;;;;;;;;;;;;6.93;80.62;96805.97;4953993;29;19918;-65
2023/03/27 00:49:13;;;;;;;;;;;;;;;6.86;80.92;96803.00;4954108;29;19922;-65
2023/03/27 00:51:39;;;;;;;;;;;;;;;6.87;80.39;96804.66;4951670;28;19919;-65
2023/03/27 00:54:05;;;;;;;;;;;;;;;6.93;80.47;96808.56;4952842;29;19922;-65
2023/03/27 00:56:32;;;;;;;;;;;;;;;6.91;80.62;96800.84;4968671;28;19914;-65
2023/03/27 00:58:59;;;;;;;;;;;;;;;6.74;81.97;96799.53;4967772;28;19919;-65
2023/03/27 01:01:25;;;;;;;;;;;;;;;6.71;82.95;96805.00;4950366;28;19922;-64
2023/03/27 01:03:51;;;;;;;;;;;;;;;6.70;82.80;96813.72;4951846;28;19953;-65
2023/03/27 01:06:16;;;;;;;;;;;;;;;6.65;82.82;96810.66;4968572;28;19962;-64
2023/03/27 01:08:42;;;;;;;;;;;;;;;6.49;82.98;96813.56;4969574;28;19953;-65
2023/03/27 01:11:22;;;;;;;;;;;;;;;6.37;83.91;96809.28;4971507;28;19969;-65
2023/03/27 01:13:47;;;;;;;;;;;;;;;6.32;83.55;96814.81;4955777;28;19918;-65
2023/03/27 01:16:22;;;;;;;;;;;;;;;6.32;82.94;96814.81;4957417;29;20338;-65
2023/03/27 01:18:57;;;;;;;;;;;;;;;6.33;82.39;96820.84;4956546;28;20284;-65
2023/03/27 01:21:40;;;;;;;;;;;;;;;6.30;82.89;96824.53;4956608;28;20379;-65
2023/03/27 01:24:24;;;;;;;;;;;;;;;6.22;82.25;96824.22;4963397;28;19962;-66
2023/03/27 01:27:09;;;;;;;;;;;;;;;6.25;82.01;96823.19;4956075;28;20403;-65
2023/03/27 01:29:52;;;;;;;;;;;;;;;6.17;81.50;96831.56;4956206;28;19961;-63
2023/03/27 01:32:17;;;;;;;;;;;;;;;6.08;82.20;96837.41;4956097;28;19914;-66
2023/03/27 01:35:00;;;;;;;;;;;;;;;6.04;82.97;96835.97;4954936;29;20413;-64
2023/03/27 01:37:29;;;;;;;;;;;;;;;5.99;83.05;96838.94;4955693;29;20429;-65
2023/03/27 01:40:15;;;;;;;;;;;;;;;5.97;83.90;96846.00;4966518;28;19918;-65
2023/03/27 01:42:45;;;;;;;;;;;;;;;5.95;83.34;96858.28;4955855;28;19915;-65
2023/03/27 01:45:15;;;;;;;;;;;;;;;5.93;83.29;96858.41;4948523;28;20038;-64
2023/03/27 01:47:50;;;;;;;;;;;;;;;5.78;84.44;96869.88;4954976;29;19957;-65
2023/03/27 01:50:15;;;;;;;;;;;;;;;5.72;85.40;96880.72;4955392;28;20415;-62
2023/03/27 01:52:41;;;;;;;;;;;;;;;5.71;85.01;96876.44;4956630;28;19914;-64
2023/03/27 01:55:08;;;;;;;;;;;;;;;5.69;85.82;96876.53;4953821;29;19956;-65
2023/03/27 01:58:02;;;;;;;;;;;;;;;5.66;85.99;96881.13;4952643;29;19929;-64
2023/03/27 02:00:27;;;;;;;;;;;;;;;5.62;85.50;96895.28;4953977;28;19918;-63
2023/03/27 02:02:55;;;;;;;;;;;;;;;5.57;85.86;96897.38;4955461;29;19922;-64
2023/03/27 02:05:29;;;;;;;;;;;;;;;5.60;85.57;96904.97;4955705;28;19969;-62
2023/03/27 02:08:09;;;;;;;;;;;;;;;5.50;86.85;96911.72;4949107;29;19921;-64
2023/03/27 02:10:37;;;;;;;;;;;;;;;5.48;86.22;96915.28;4967147;28;19941;-64
2023/03/27 02:13:06;;;;;;;;;;;;;;;5.43;86.21;96926.91;4954798;29;19918;-65
2023/03/27 02:15:32;;;;;;;;;;;;;;;5.41;85.60;96926.22;4970996;28;19919;-65
2023/03/27 02:18:03;;;;;;;;;;;;;;;5.32;85.92;96943.25;4955434;28;19922;-64
2023/03/27 02:20:29;;;;;;;;;;;;;;;5.29;85.62;96956.47;4954628;28;19919;-64
2023/03/27 02:22:54;;;;;;;;;;;;;;;5.37;84.91;96946.38;4969991;28;19941;-65
2023/03/27 02:25:23;;;;;;;;;;;;;;;5.26;86.22;96959.25;4955018;29;19922;-65
2023/03/27 02:27:49;;;;;;;;;;;;;;;5.37;84.57;96956.78;4971401;28;19950;-65
2023/03/27 02:30:16;;;;;;;;;;;;;;;5.25;85.56;96968.00;4955121;28;20330;-65
2023/03/27 02:32:52;;;;;;;;;;;;;;;5.18;84.53;96974.53;4969456;28;19918;-65
2023/03/27 02:35:30;;;;;;;;;;;;;;;5.17;84.75;96988.47;4953734;29;19937;-66
2023/03/27 02:37:55;;;;;;;;;;;;;;;5.16;85.13;96990.25;4954167;28;20157;-64
2023/03/27 02:40:28;;;;;;;;;;;;;;;5.23;85.22;96998.50;4956090;29;20410;-65
2023/03/27 02:42:56;;;;;;;;;;;;;;;5.19;84.58;97004.78;4969600;28;20018;-65
2023/03/27 02:45:28;;;;;;;;;;;;;;;5.26;83.94;97011.25;4955860;29;19915;-64
2023/03/27 02:48:09;;;;;;;;;;;;;;;5.17;85.35;97017.06;4971073;28;20281;-64
2023/03/27 02:50:38;;;;;;;;;;;;;;;5.12;85.76;97032.13;4969848;28;19919;-65
2023/03/27 02:53:03;;;;;;;;;;;;;;;5.07;85.70;97036.81;4968385;28;19922;-65
2023/03/27 02:55:32;;;;;;;;;;;;;;;5.07;85.20;97037.63;4970549;28;20287;-64
2023/03/27 02:57:58;;;;;;;;;;;;;;;5.04;84.23;97060.38;4969633;28;20033;-64
2023/03/27 03:00:25;;;;;;;;;;;;;;;4.93;84.74;97053.28;4970019;28;19922;-64
2023/03/27 03:02:57;;;;;;;;;;;;;;;4.90;83.36;97062.09;4953340;29;20380;-65
2023/03/27 03:05:23;;;;;;;;;;;;;;;4.81;83.91;97072.25;4954503;28;19925;-64
2023/03/27 03:07:48;;;;;;;;;;;;;;;4.73;83.65;97070.97;4970444;28;19914;-65
2023/03/27 03:10:13;;;;;;;;;;;;;;;4.75;84.96;97078.69;4970650;28;19969;-65
2023/03/27 03:12:38;;;;;;;;;;;;;;;4.76;89.15;97080.34;4968912;28;19922;-65
2023/03/27 03:15:04;;;;;;;;;;;;;;;4.92;84.81;97094.03;4955322;29;20004;-65
2023/03/27 03:17:29;;;;;;;;;;;;;;;4.83;84.76;97092.00;4953659;28;20005;-65
2023/03/27 03:19:54;;;;;;;;;;;;;;;4.90;85.83;97105.44;4958818;28;19922;-65
2023/03/27 03:22:20;;;;;;;;;;;;;;;4.97;84.86;97110.16;4953971;28;19915;-65
2023/03/27 03:24:45;;;;;;;;;;;;;;;5.07;86.36;97119.97;4955281;28;19946;-65
2023/03/27 03:27:13;;;;;;;;;;;;;;;5.05;85.12;97125.25;4969050;28;19918;-65
2023/03/27 03:29:38;;;;;;;;;;;;;;;5.01;84.89;97134.19;4955273;28;19918;-65
2023/03/27 03:32:05;;;;;;;;;;;;;;;5.03;86.63;97140.13;4954517;28;19921;-65
2023/03/27 03:34:32;;;;;;;;;;;;;;;4.99;83.62;97143.84;4952981;29;19926;-65
2023/03/27 03:36:57;;;;;;;;;;;;;;;4.89;86.12;97161.78;4945475;28;20388;-63
2023/03/27 03:39:22;;;;;;;;;;;;;;;4.91;83.50;97162.50;4969922;28;20511;-65
2023/03/27 03:41:47;;;;;;;;;;;;;;;4.95;84.93;97173.53;4955056;28;20391;-65
2023/03/27 03:44:13;;;;;;;;;;;;;;;4.99;83.44;97180.25;4955180;29;19930;-64
2023/03/27 03:46:38;;;;;;;;;;;;;;;4.95;83.11;97183.94;4953586;29;19918;-65
2023/03/27 03:49:03;;;;;;;;;;;;;;;4.88;82.91;97191.28;4968885;28;19915;-65
2023/03/27 03:51:30;;;;;;;;;;;;;;;4.87;83.58;97196.56;4969542;28;19966;-66
2023/03/27 03:53:55;;;;;;;;;;;;;;;4.87;83.84;97207.81;4959793;28;19915;-66
2023/03/27 03:56:20;;;;;;;;;;;;;;;4.86;83.52;97213.09;4940184;29;19921;-66
2023/03/27 03:58:46;;;;;;;;;;;;;;;4.98;84.38;97220.13;4954578;28;19919;-65
2023/03/27 04:01:11;;;;;;;;;;;;;;;4.95;84.46;97231.53;4954082;28;19937;-65
2023/03/27 04:03:37;;;;;;;;;;;;;;;4.93;82.97;97243.81;4953696;28;19914;-65
2023/03/27 04:06:04;;;;;;;;;;;;;;;4.86;83.19;97245.13;4953347;29;20258;-65
2023/03/27 04:08:30;;;;;;;;;;;;;;;4.73;82.09;97254.56;4954563;28;19910;-65
2023/03/27 04:10:55;;;;;;;;;;;;;;;4.69;83.19;97250.50;4969250;28;19910;-65
2023/03/27 04:13:20;;;;;;;;;;;;;;;4.72;84.45;97271.94;4969761;28;19965;-63
2023/03/27 04:15:46;;;;;;;;;;;;;;;4.70;82.18;97273.75;4968174;28;20264;-65
2023/03/27 04:18:13;;;;;;;;;;;;;;;4.59;84.21;97280.53;4952249;29;19946;-65
2023/03/27 04:20:38;;;;;;;;;;;;;;;4.55;83.74;97279.06;4953146;28;20380;-65
2023/03/27 04:23:04;;;;;;;;;;;;;;;4.62;84.00;97290.75;4954492;29;20380;-64
2023/03/27 04:25:29;;;;;;;;;;;;;;;4.63;82.59;97292.41;4951865;28;20398;-63
2023/03/27 04:27:55;;;;;;;;;;;;;;;4.52;83.43;97299.06;4953098;29;19910;-65
2023/03/27 04:30:22;;;;;;;;;;;;;;;4.62;83.76;97306.34;4953882;29;19911;-65
2023/03/27 04:32:50;;;;;;;;;;;;;;;4.64;84.96;97318.28;4935599;29;19953;-64
2023/03/27 04:35:16;;;;;;;;;;;;;;;4.55;83.84;97316.25;4968799;28;20368;-65
2023/03/27 04:37:41;;;;;;;;;;;;;;;4.48;84.79;97325.31;4967981;28;19918;-65
2023/03/27 04:40:07;;;;;;;;;;;;;;;4.47;83.78;97326.22;4953125;28;20045;-65
2023/03/27 04:42:32;;;;;;;;;;;;;;;4.36;84.03;97339.81;4968962;28;19915;-65
2023/03/27 04:44:57;;;;;;;;;;;;;;;4.28;82.53;97350.66;4969033;28;19910;-64
2023/03/27 04:47:24;;;;;;;;;;;;;;;4.11;84.23;97350.78;4951531;29;19928;-65
2023/03/27 04:49:49;;;;;;;;;;;;;;;4.11;83.71;97353.38;4953415;28;19914;-64
2023/03/27 04:52:15;;;;;;;;;;;;;;;4.11;84.86;97362.91;4953139;28;19956;-65
2023/03/27 04:54:41;;;;;;;;;;;;;;;4.20;84.81;97368.44;4968793;28;20330;-65
2023/03/27 04:57:06;;;;;;;;;;;;;;;4.23;81.66;97373.47;4952198;29;19961;-65
2023/03/27 04:59:31;;;;;;;;;;;;;;;4.12;82.05;97386.16;4952612;28;19918;-66
2023/03/27 05:01:57;;;;;;;;;;;;;;;4.11;83.49;97383.69;4952798;28;19915;-66
2023/03/27 05:04:25;;;;;;;;;;;;;;;4.11;81.85;97409.63;4951074;29;19919;-65
2023/03/27 05:06:50;;;;;;;;;;;;;;;3.90;82.80;97407.28;4953220;29;19914;-66
2023/03/27 05:09:16;;;;;;;;;;;;;;;3.90;81.60;97424.63;4952139;29;19925;-66
2023/03/27 05:11:41;;;;;;;;;;;;;;;3.86;83.75;97417.91;4953796;28;19914;-65
2023/03/27 05:14:06;;;;;;;;;;;;;;;3.85;82.56;97424.84;4951563;29;19922;-66
2023/03/27 05:16:34;;;;;;;;;;;;;;;3.95;81.33;97431.22;4950904;29;19914;-66
2023/03/27 19:33:12;;;;;;;;;;;;;;;3.61;66.75;98505.06;5645338;23;20029;-64
2023/03/27 19:35:37;;;;;;;;;;;;;;;3.63;66.86;98511.91;4959419;28;20006;-64
2023/03/27 19:38:03;;;;;;;;;;;;;;;3.65;66.91;98517.88;4956201;28;19966;-64
2023/03/27 19:40:28;;;;;;;;;;;;;;;3.69;66.60;98513.44;4965411;28;19957;-61
2023/03/27 19:42:53;;;;;;;;;;;;;;;3.60;66.21;98511.16;4967869;28;19969;-64
2023/03/27 19:45:18;;;;;;;;;;;;;;;3.59;66.67;98512.06;4952795;28;20579;-65
2023/03/27 19:47:44;;;;;;;;;;;;;;;3.63;65.95;98513.66;4950444;29;20295;-64
2023/03/27 19:50:09;;;;;;;;;;;;;;;3.63;66.16;98518.84;4945274;28;20017;-64
2023/03/27 19:52:35;;;;;;;;;;;;;;;3.65;65.38;98522.19;4954033;28;19914;-65
2023/03/27 19:55:00;;;;;;;;;;;;;;;3.64;66.01;98530.91;4953292;29;19915;-65
2023/03/27 19:57:25;;;;;;;;;;;;;;;3.67;65.32;98528.19;4954423;28;20093;-64
2023/03/27 19:59:50;;;;;;;;;;;;;;;3.64;65.24;98536.94;4951582;28;19926;-65
2023/03/27 20:02:18;;;;;;;;;;;;;;;3.64;65.80;98533.50;4954016;29;20211;-65
2023/03/27 20:04:43;;;;;;;;;;;;;;;3.69;64.51;98540.22;4957255;28;20364;-65
2023/03/27 20:07:08;;;;;;;;;;;;;;;3.66;64.82;98542.06;4958565;28;20382;-65
2023/03/27 20:09:34;;;;;;;;;;;;;;;3.72;64.18;98544.47;4955856;28;19925;-65
2023/03/27 20:12:00;;;;;;;;;;;;;;;3.60;65.21;98555.25;4954374;28;19921;-65
2023/03/27 20:14:25;;;;;;;;;;;;;;;3.61;65.02;98556.94;4952604;28;19914;-64
2023/03/27 20:16:50;;;;;;;;;;;;;;;3.67;65.72;98569.69;4960364;28;19969;-65
2023/03/27 20:19:16;;;;;;;;;;;;;;;3.53;64.93;98571.03;4957808;28;19958;-65
2023/03/27 20:21:42;;;;;;;;;;;;;;;3.37;66.13;98569.84;4952774;28;19973;-62
2023/03/27 20:24:08;;;;;;;;;;;;;;;3.24;67.55;98574.59;4944699;28;19965;-64
2023/03/27 20:26:37;;;;;;;;;;;;;;;3.07;69.42;98582.94;4958655;28;19923;-65
2023/03/27 20:29:04;;;;;;;;;;;;;;;2.82;72.13;98572.50;4941432;29;19922;-65
2023/03/27 20:31:29;;;;;;;;;;;;;;;2.49;74.38;98570.94;4945109;28;20005;-64
2023/03/27 20:33:54;;;;;;;;;;;;;;;2.42;75.23;98565.09;4950124;28;20360;-65
2023/03/27 20:36:21;;;;;;;;;;;;;;;2.38;75.54;98560.91;4948074;29;19914;-64
2023/03/27 20:38:47;;;;;;;;;;;;;;;2.39;74.91;98562.59;4950946;28;19922;-65
2023/03/27 20:41:14;;;;;;;;;;;;;;;2.37;74.81;98569.56;4952230;28;19921;-64
2023/03/27 20:43:43;;;;;;;;;;;;;;;2.42;73.99;98567.69;4953930;28;19946;-64
2023/03/27 20:46:09;;;;;;;;;;;;;;;2.37;74.34;98569.56;4952857;29;20004;-65
2023/03/27 20:48:43;;;;;;;;;;;;;;;2.36;74.50;98567.88;4950528;29;20362;-65
2023/03/27 20:51:16;;;;;;;;;;;;;;;2.44;75.81;98575.41;4949189;29;19948;-66
2023/03/27 20:53:42;;;;;;;;;;;;;;;2.47;75.76;98578.75;4952859;29;19958;-65
2023/03/27 20:56:07;;;;;;;;;;;;;;;2.56;75.93;98586.25;4953929;28;19957;-65
2023/03/27 20:58:33;;;;;;;;;;;;;;;2.57;74.01;98584.50;4949654;29;19969;-64
2023/03/27 21:01:03;;;;;;;;;;;;;;;2.63;76.94;98586.91;4949084;28;20419;-65
2023/03/27 21:03:30;;;;;;;;;;;;;;;2.78;78.67;98585.59;4953960;28;20320;-65
2023/03/27 21:05:56;;;;;;;;;;;;;;;2.71;72.78;98582.34;4952524;28;20009;-64
2023/03/27 21:08:21;;;;;;;;;;;;;;;2.69;72.73;98580.72;4952315;29;20009;-64
2023/03/27 21:10:50;;;;;;;;;;;;;;;2.61;72.99;98578.31;4952391;28;19973;-65
2023/03/27 21:13:16;;;;;;;;;;;;;;;2.76;73.67;98583.06;4951138;29;19918;-65
2023/03/27 21:15:41;;;;;;;;;;;;;;;2.89;71.50;98578.34;4953009;29;19919;-65
2023/03/27 21:18:06;;;;;;;;;;;;;;;2.77;70.83;98578.72;4952657;29;19978;-65
2023/03/27 21:20:31;;;;;;;;;;;;;;;2.67;71.44;98579.91;4951507;28;19918;-65
2023/03/27 21:22:57;;;;;;;;;;;;;;;2.71;74.46;98581.50;4953455;29;19921;-65
2023/03/27 21:25:22;;;;;;;;;;;;;;;2.77;71.25;98584.75;4953734;28;20291;-65
2023/03/27 21:27:47;;;;;;;;;;;;;;;2.81;71.74;98585.50;4955332;29;19914;-65
2023/03/27 21:30:12;;;;;;;;;;;;;;;2.78;70.43;98591.59;4955722;29;19918;-65
2023/03/27 21:32:38;;;;;;;;;;;;;;;2.92;73.46;98588.59;4956098;29;20016;-64
2023/03/27 21:35:03;;;;;;;;;;;;;;;2.96;70.26;98589.34;4957415;29;19919;-65
2023/03/27 21:37:28;;;;;;;;;;;;;;;3.01;71.26;98592.66;4948067;29;20000;-65
2023/03/27 21:39:53;;;;;;;;;;;;;;;3.19;76.10;98589.44;4956000;29;20395;-66
2023/03/27 21:42:20;;;;;;;;;;;;;;;3.24;72.39;98599.69;4957143;29;20356;-65
2023/03/27 21:44:45;;;;;;;;;;;;;;;3.36;70.26;98591.50;4954968;28;19918;-65
2023/03/27 21:47:11;;;;;;;;;;;;;;;3.37;70.28;98603.53;4955999;29;19914;-65
2023/03/27 21:49:36;;;;;;;;;;;;;;;3.41;67.12;98607.75;4955888;28;19918;-65
2023/03/27 21:52:01;;;;;;;;;;;;;;;3.17;67.27;98613.75;4952247;28;19925;-65
2023/03/27 21:54:26;;;;;;;;;;;;;;;3.10;68.70;98610.50;4956764;29;20067;-65
2023/03/27 21:56:52;;;;;;;;;;;;;;;3.03;68.10;98621.97;4956894;29;20002;-65
2023/03/27 21:59:17;;;;;;;;;;;;;;;2.99;67.36;98625.53;4955024;29;19922;-65
2023/03/27 22:01:42;;;;;;;;;;;;;;;2.92;67.76;98626.59;4956742;29;20041;-65
2023/03/27 22:04:07;;;;;;;;;;;;;;;2.76;68.76;98623.66;4956917;29;20103;-65
2023/03/27 22:06:33;;;;;;;;;;;;;;;2.76;70.57;98624.50;4955605;29;19914;-65
2023/03/27 22:08:58;;;;;;;;;;;;;;;3.05;70.02;98615.81;4952717;28;19922;-65
2023/03/27 22:11:23;;;;;;;;;;;;;;;2.95;68.29;98627.34;4955313;29;19925;-65
2023/03/27 22:13:48;;;;;;;;;;;;;;;2.77;69.84;98625.34;4956733;28;19914;-65
2023/03/27 22:16:14;;;;;;;;;;;;;;;2.73;68.66;98621.16;4955355;28;19929;-65
2023/03/27 22:18:40;;;;;;;;;;;;;;;2.53;69.11;98635.53;4954355;28;19922;-65
2023/03/27 22:21:11;;;;;;;;;;;;;;;2.52;69.72;98631.25;4956542;28;19958;-65
2023/03/27 22:23:38;;;;;;;;;;;;;;;2.50;72.57;98625.25;4955271;28;20344;-65
2023/03/27 22:26:03;;;;;;;;;;;;;;;2.58;73.07;98625.91;4948232;29;19919;-65
2023/03/27 22:28:28;;;;;;;;;;;;;;;2.66;69.82;98617.06;4955502;28;20077;-65
2023/03/27 22:30:53;;;;;;;;;;;;;;;2.56;70.18;98621.66;4955013;28;19922;-65
2023/03/27 22:33:19;;;;;;;;;;;;;;;2.64;73.07;98626.59;4956353;29;19918;-65
2023/03/27 22:35:47;;;;;;;;;;;;;;;2.82;72.11;98628.63;4956309;29;19915;-66
2023/03/27 22:38:13;;;;;;;;;;;;;;;3.09;75.83;98632.97;4953558;28;19923;-65
2023/03/27 22:40:38;;;;;;;;;;;;;;;3.40;73.80;98639.75;4954863;28;19934;-64
2023/03/27 22:43:03;;;;;;;;;;;;;;;3.56;73.87;98632.31;4955626;28;19926;-65
2023/03/27 22:45:28;;;;;;;;;;;;;;;3.70;73.01;98637.06;4954822;28;19919;-65
2023/03/27 22:47:53;;;;;;;;;;;;;;;3.95;72.77;98632.69;4956082;29;19926;-65
2023/03/27 22:50:19;;;;;;;;;;;;;;;4.27;76.39;98641.13;4955559;29;19922;-65
2023/03/27 22:52:44;;;;;;;;;;;;;;;4.34;71.94;98637.38;4950928;28;19918;-65
2023/03/27 22:55:09;;;;;;;;;;;;;;;4.55;74.83;98640.94;4953375;29;20277;-65
2023/03/27 22:57:35;;;;;;;;;;;;;;;4.46;69.55;98647.31;4956036;28;20349;-65
2023/03/27 23:00:01;;;;;;;;;;;;;;;4.68;73.73;98651.69;4955294;28;19940;-64
2023/03/27 23:02:26;;;;;;;;;;;;;;;4.83;72.01;98645.94;4952015;28;20366;-65
2023/03/27 23:04:51;;;;;;;;;;;;;;;4.83;70.38;98645.94;4955027;28;19944;-64
2023/03/27 23:07:16;;;;;;;;;;;;;;;4.65;67.45;98657.03;4955850;29;19922;-64
2023/03/27 23:09:42;;;;;;;;;;;;;;;4.38;67.24;98659.75;4953644;28;19919;-65
2023/03/27 23:12:07;;;;;;;;;;;;;;;4.43;71.74;98667.34;4955615;28;19914;-65
2023/03/27 23:14:32;;;;;;;;;;;;;;;4.35;71.90;98665.03;4946291;29;19918;-65
2023/03/27 23:16:57;;;;;;;;;;;;;;;4.43;71.63;98667.34;4954238;29;19919;-65
2023/03/27 23:19:22;;;;;;;;;;;;;;;4.33;70.63;98660.81;4954769;28;19928;-65
2023/03/27 23:21:48;;;;;;;;;;;;;;;4.35;72.22;98666.81;4955499;28;19915;-65
2023/03/27 23:24:13;;;;;;;;;;;;;;;4.31;71.68;98662.63;4952695;28;19926;-65
2023/03/27 23:26:38;;;;;;;;;;;;;;;4.34;70.15;98662.53;4951357;29;19918;-65
2023/03/27 23:29:03;;;;;;;;;;;;;;;4.15;66.41;98665.75;4954663;28;19935;-66
2023/03/27 23:31:29;;;;;;;;;;;;;;;4.00;72.05;98669.75;4955208;29;19921;-65
2023/03/27 23:33:54;;;;;;;;;;;;;;;3.92;70.27;98676.94;4953215;28;19922;-65
2023/03/27 23:36:20;;;;;;;;;;;;;;;3.65;67.91;98681.31;4950325;28;19918;-64
2023/03/27 23:38:45;;;;;;;;;;;;;;;3.53;67.29;98682.56;4953241;29;19926;-65
2023/03/27 23:41:11;;;;;;;;;;;;;;;3.51;72.21;98688.66;4949634;29;19918;-65
2023/03/27 23:43:36;;;;;;;;;;;;;;;3.68;67.83;98688.13;4954571;28;19957;-63
2023/03/27 23:46:02;;;;;;;;;;;;;;;3.68;71.27;98690.72;4948675;28;19976;-65
2023/03/27 23:48:27;;;;;;;;;;;;;;;3.80;71.25;98690.31;4952863;28;19926;-65
2023/03/27 23:50:53;;;;;;;;;;;;;;;3.92;73.28;98687.34;4953124;29;19918;-64
2023/03/27 23:53:21;;;;;;;;;;;;;;;4.19;72.84;98690.69;4955016;29;20395;-65
2023/03/27 23:55:47;;;;;;;;;;;;;;;4.20;67.89;98676.84;4952234;28;19915;-65
2023/03/27 23:58:12;;;;;;;;;;;;;;;4.33;73.86;98682.41;4953096;29;19930;-65
